sensor_id;sensor_type;location;lat;lon;timestamp;temperature;humidity
16867;DHT22;8550;52.596;13.320;2023-02-15T00:02:11;2.80;99.90
16867;DHT22;8550;52.596;13.320;2023-02-15T00:07:14;2.70;99.90
16867;DHT22;8550;52.596;13.320;2023-02-15T00:12:16;2.60;99.90
16867;DHT22;8550;52.596;13.320;2023-02-15T00:17:21;2.40;99.90
16867;DHT22;8550;52.596;13.320;2023-02-15T00:22:23;2.30;99.90
16867;DHT22;8550;52.596;13.320;2023-02-15T00:27:25;2.20;99.90
16867;DHT22;8550;52.596;13.320;2023-02-15T00:32:28;2.20;99.90
16867;DHT22;8550;52.596;13.320;2023-02-15T00:37:30;2.20;99.90
16867;DHT22;8550;52.596;13.320;2023-02-15T00:42:32;2.00;99.90
16867;DHT22;8550;52.596;13.320;2023-02-15T00:47:35;2.10;99.90
16867;DHT22;8550;52.596;13.320;2023-02-15T00:52:37;2.10;99.90
16867;DHT22;8550;52.596;13.320;2023-02-15T00:57:39;2.00;99.90
16867;DHT22;8550;52.596;13.320;2023-02-15T01:02:42;1.90;99.90
16867;DHT22;8550;52.596;13.320;2023-02-15T01:07:44;1.80;99.90
16867;DHT22;8550;52.596;13.320;2023-02-15T01:12:46;1.70;99.90
16867;DHT22;8550;52.596;13.320;2023-02-15T01:17:49;1.70;99.90
16867;DHT22;8550;52.596;13.320;2023-02-15T01:22:54;1.60;99.90
16867;DHT22;8550;52.596;13.320;2023-02-15T01:27:57;1.70;99.90
16867;DHT22;8550;52.596;13.320;2023-02-15T01:33:00;1.60;99.90
16867;DHT22;8550;52.596;13.320;2023-02-15T01:38:02;1.60;99.90
16867;DHT22;8550;52.596;13.320;2023-02-15T01:43:09;1.50;99.90
16867;DHT22;8550;52.596;13.320;2023-02-15T01:48:19;1.50;99.90
16867;DHT22;8550;52.596;13.320;2023-02-15T01:53:25;1.40;99.90
16867;DHT22;8550;52.596;13.320;2023-02-15T01:58:29;1.30;99.90
16867;DHT22;8550;52.596;13.320;2023-02-15T02:03:39;1.30;99.90
16867;DHT22;8550;52.596;13.320;2023-02-15T02:08:43;1.30;99.90
16867;DHT22;8550;52.596;13.320;2023-02-15T02:13:45;1.30;99.90
16867;DHT22;8550;52.596;13.320;2023-02-15T02:18:58;1.30;99.90
16867;DHT22;8550;52.596;13.320;2023-02-15T02:24:28;1.30;99.90
16867;DHT22;8550;52.596;13.320;2023-02-15T02:30:06;1.30;99.90
16867;DHT22;8550;52.596;13.320;2023-02-15T02:35:19;1.30;99.90
16867;DHT22;8550;52.596;13.320;2023-02-15T02:40:29;1.30;99.90
16867;DHT22;8550;52.596;13.320;2023-02-15T02:45:35;1.30;99.90
16867;DHT22;8550;52.596;13.320;2023-02-15T02:50:42;1.20;99.90
16867;DHT22;8550;52.596;13.320;2023-02-15T02:55:46;1.10;99.90
16867;DHT22;8550;52.596;13.320;2023-02-15T03:00:52;1.10;99.90
16867;DHT22;8550;52.596;13.320;2023-02-15T03:05:59;1.10;99.90
16867;DHT22;8550;52.596;13.320;2023-02-15T03:11:03;1.10;99.90
16867;DHT22;8550;52.596;13.320;2023-02-15T03:16:07;1.00;99.90
16867;DHT22;8550;52.596;13.320;2023-02-15T03:21:36;1.00;99.90
16867;DHT22;8550;52.596;13.320;2023-02-15T03:26:43;0.90;99.90
16867;DHT22;8550;52.596;13.320;2023-02-15T03:31:51;0.90;99.90
16867;DHT22;8550;52.596;13.320;2023-02-15T03:36:59;0.90;99.90
16867;DHT22;8550;52.596;13.320;2023-02-15T03:42:08;0.90;99.90
16867;DHT22;8550;52.596;13.320;2023-02-15T03:47:15;0.90;99.90
16867;DHT22;8550;52.596;13.320;2023-02-15T03:52:20;1.00;99.90
16867;DHT22;8550;52.596;13.320;2023-02-15T03:57:26;1.00;99.90
16867;DHT22;8550;52.596;13.320;2023-02-15T04:03:00;1.00;99.90
16867;DHT22;8550;52.596;13.320;2023-02-15T04:08:07;1.10;99.90
16867;DHT22;8550;52.596;13.320;2023-02-15T04:13:12;1.10;99.90
16867;DHT22;8550;52.596;13.320;2023-02-15T04:18:14;1.10;99.90
16867;DHT22;8550;52.596;13.320;2023-02-15T04:23:20;1.00;99.90
16867;DHT22;8550;52.596;13.320;2023-02-15T04:28:40;1.00;99.90
16867;DHT22;8550;52.596;13.320;2023-02-15T04:33:42;1.10;99.90
16867;DHT22;8550;52.596;13.320;2023-02-15T04:38:46;1.10;99.90
16867;DHT22;8550;52.596;13.320;2023-02-15T04:43:49;1.10;99.90
16867;DHT22;8550;52.596;13.320;2023-02-15T04:48:51;1.00;99.90
16867;DHT22;8550;52.596;13.320;2023-02-15T04:53:54;0.80;99.90
16867;DHT22;8550;52.596;13.320;2023-02-15T04:58:57;0.80;99.90
16867;DHT22;8550;52.596;13.320;2023-02-15T05:03:59;0.70;99.90
16867;DHT22;8550;52.596;13.320;2023-02-15T05:09:02;0.70;99.90
16867;DHT22;8550;52.596;13.320;2023-02-15T05:14:04;0.60;99.90
16867;DHT22;8550;52.596;13.320;2023-02-15T05:19:07;0.60;99.90
16867;DHT22;8550;52.596;13.320;2023-02-15T05:24:13;0.70;99.90
16867;DHT22;8550;52.596;13.320;2023-02-15T05:29:31;0.60;99.90
16867;DHT22;8550;52.596;13.320;2023-02-15T05:34:33;0.60;99.90
16867;DHT22;8550;52.596;13.320;2023-02-15T05:39:36;0.60;99.90
16867;DHT22;8550;52.596;13.320;2023-02-15T05:44:38;0.50;99.90
16867;DHT22;8550;52.596;13.320;2023-02-15T05:49:40;0.40;99.90
16867;DHT22;8550;52.596;13.320;2023-02-15T05:54:44;0.30;99.90
16867;DHT22;8550;52.596;13.320;2023-02-15T05:59:45;0.40;99.90
16867;DHT22;8550;52.596;13.320;2023-02-15T06:04:47;0.30;99.90
16867;DHT22;8550;52.596;13.320;2023-02-15T06:09:51;0.20;99.90
16867;DHT22;8550;52.596;13.320;2023-02-15T06:14:52;0.30;99.90
16867;DHT22;8550;52.596;13.320;2023-02-15T06:19:54;0.20;99.90
16867;DHT22;8550;52.596;13.320;2023-02-15T06:24:58;0.20;99.90
16867;DHT22;8550;52.596;13.320;2023-02-15T06:30:01;0.20;99.90
16867;DHT22;8550;52.596;13.320;2023-02-15T06:35:03;0.20;99.90
16867;DHT22;8550;52.596;13.320;2023-02-15T06:40:08;0.20;99.90
16867;DHT22;8550;52.596;13.320;2023-02-15T06:45:11;0.30;99.90
16867;DHT22;8550;52.596;13.320;2023-02-15T06:50:13;1.00;99.90
16867;DHT22;8550;52.596;13.320;2023-02-15T06:55:16;0.90;99.90
16867;DHT22;8550;52.596;13.320;2023-02-15T07:00:18;1.00;99.90
16867;DHT22;8550;52.596;13.320;2023-02-15T07:05:23;1.20;99.90
16867;DHT22;8550;52.596;13.320;2023-02-15T07:10:26;1.30;99.90
16867;DHT22;8550;52.596;13.320;2023-02-15T07:15:28;1.50;99.90
16867;DHT22;8550;52.596;13.320;2023-02-15T07:20:30;1.60;99.90
16867;DHT22;8550;52.596;13.320;2023-02-15T07:25:35;1.60;99.90
16867;DHT22;8550;52.596;13.320;2023-02-15T07:30:37;1.80;99.90
16867;DHT22;8550;52.596;13.320;2023-02-15T07:35:46;1.80;99.90
16867;DHT22;8550;52.596;13.320;2023-02-15T07:40:50;2.00;99.90
16867;DHT22;8550;52.596;13.320;2023-02-15T07:45:52;2.00;99.90
16867;DHT22;8550;52.596;13.320;2023-02-15T07:56:38;2.10;99.90
16867;DHT22;8550;52.596;13.320;2023-02-15T08:01:40;2.20;99.90
16867;DHT22;8550;52.596;13.320;2023-02-15T08:06:42;2.30;99.90
16867;DHT22;8550;52.596;13.320;2023-02-15T08:11:47;2.40;99.90
16867;DHT22;8550;52.596;13.320;2023-02-15T08:16:50;2.50;99.90
16867;DHT22;8550;52.596;13.320;2023-02-15T08:21:54;2.60;99.90
16867;DHT22;8550;52.596;13.320;2023-02-15T08:26:58;2.80;99.90
16867;DHT22;8550;52.596;13.320;2023-02-15T08:32:05;2.80;99.90
16867;DHT22;8550;52.596;13.320;2023-02-15T08:37:07;2.80;99.90
16867;DHT22;8550;52.596;13.320;2023-02-15T08:42:11;2.90;99.90
16867;DHT22;8550;52.596;13.320;2023-02-15T08:47:13;2.90;99.90
16867;DHT22;8550;52.596;13.320;2023-02-15T08:52:14;2.90;99.90
16867;DHT22;8550;52.596;13.320;2023-02-15T08:57:18;3.10;99.90
16867;DHT22;8550;52.596;13.320;2023-02-15T09:02:20;3.20;99.90
16867;DHT22;8550;52.596;13.320;2023-02-15T09:07:22;3.30;99.90
16867;DHT22;8550;52.596;13.320;2023-02-15T09:12:25;3.40;99.90
16867;DHT22;8550;52.596;13.320;2023-02-15T09:17:27;3.70;99.90
16867;DHT22;8550;52.596;13.320;2023-02-15T09:22:29;3.80;99.90
16867;DHT22;8550;52.596;13.320;2023-02-15T09:27:33;3.90;99.90
16867;DHT22;8550;52.596;13.320;2023-02-15T09:32:35;4.10;99.90
16867;DHT22;8550;52.596;13.320;2023-02-15T09:37:36;4.00;99.90
16867;DHT22;8550;52.596;13.320;2023-02-15T09:48:32;4.60;99.90
16867;DHT22;8550;52.596;13.320;2023-02-15T09:53:52;4.80;99.90
16867;DHT22;8550;52.596;13.320;2023-02-15T09:59:04;5.00;99.90
16867;DHT22;8550;52.596;13.320;2023-02-15T10:04:26;5.30;99.90
16867;DHT22;8550;52.596;13.320;2023-02-15T10:09:42;5.50;99.90
16867;DHT22;8550;52.596;13.320;2023-02-15T10:15:02;5.60;99.90
16867;DHT22;8550;52.596;13.320;2023-02-15T10:20:17;5.70;99.90
16867;DHT22;8550;52.596;13.320;2023-02-15T10:25:33;6.10;99.90
16867;DHT22;8550;52.596;13.320;2023-02-15T10:30:46;6.20;99.90
16867;DHT22;8550;52.596;13.320;2023-02-15T10:35:53;6.10;99.90
16867;DHT22;8550;52.596;13.320;2023-02-15T10:41:09;6.10;99.90
16867;DHT22;8550;52.596;13.320;2023-02-15T10:46:28;6.20;99.90
16867;DHT22;8550;52.596;13.320;2023-02-15T10:51:40;6.60;99.90
16867;DHT22;8550;52.596;13.320;2023-02-15T10:56:50;7.20;99.90
16867;DHT22;8550;52.596;13.320;2023-02-15T11:02:00;7.70;99.90
16867;DHT22;8550;52.596;13.320;2023-02-15T11:07:06;8.00;99.90
16867;DHT22;8550;52.596;13.320;2023-02-15T11:12:12;8.40;99.90
16867;DHT22;8550;52.596;13.320;2023-02-15T11:17:18;9.30;99.90
16867;DHT22;8550;52.596;13.320;2023-02-15T11:22:22;10.10;99.90
16867;DHT22;8550;52.596;13.320;2023-02-15T11:27:26;10.30;99.90
16867;DHT22;8550;52.596;13.320;2023-02-15T11:32:33;10.70;99.90
16867;DHT22;8550;52.596;13.320;2023-02-15T11:37:40;11.50;99.90
16867;DHT22;8550;52.596;13.320;2023-02-15T11:42:44;12.20;99.90
16867;DHT22;8550;52.596;13.320;2023-02-15T11:47:48;13.10;98.90
16867;DHT22;8550;52.596;13.320;2023-02-15T11:52:51;14.10;96.00
16867;DHT22;8550;52.596;13.320;2023-02-15T11:57:56;14.00;94.90
16867;DHT22;8550;52.596;13.320;2023-02-15T12:03:06;15.00;92.20
16867;DHT22;8550;52.596;13.320;2023-02-15T12:08:17;14.60;92.60
16867;DHT22;8550;52.596;13.320;2023-02-15T12:13:20;15.10;91.10
16867;DHT22;8550;52.596;13.320;2023-02-15T12:18:36;13.10;94.60
16867;DHT22;8550;52.596;13.320;2023-02-15T12:23:43;12.70;96.70
16867;DHT22;8550;52.596;13.320;2023-02-15T12:28:49;11.40;99.50
16867;DHT22;8550;52.596;13.320;2023-02-15T12:33:57;10.70;99.90
16867;DHT22;8550;52.596;13.320;2023-02-15T12:39:05;10.50;99.90
16867;DHT22;8550;52.596;13.320;2023-02-15T12:44:18;10.10;99.90
16867;DHT22;8550;52.596;13.320;2023-02-15T12:49:22;10.30;99.90
16867;DHT22;8550;52.596;13.320;2023-02-15T12:54:36;10.00;99.90
16867;DHT22;8550;52.596;13.320;2023-02-15T12:59:48;10.20;99.90
16867;DHT22;8550;52.596;13.320;2023-02-15T13:04:51;10.30;99.90
16867;DHT22;8550;52.596;13.320;2023-02-15T13:09:54;10.50;99.90
16867;DHT22;8550;52.596;13.320;2023-02-15T13:14:56;10.70;99.90
16867;DHT22;8550;52.596;13.320;2023-02-15T13:20:04;10.90;99.90
16867;DHT22;8550;52.596;13.320;2023-02-15T13:25:13;10.90;99.90
16867;DHT22;8550;52.596;13.320;2023-02-15T13:30:23;11.10;99.90
16867;DHT22;8550;52.596;13.320;2023-02-15T13:35:33;11.20;99.90
16867;DHT22;8550;52.596;13.320;2023-02-15T13:40:43;11.30;99.90
16867;DHT22;8550;52.596;13.320;2023-02-15T13:45:57;12.00;99.90
16867;DHT22;8550;52.596;13.320;2023-02-15T13:51:12;12.10;99.00
16867;DHT22;8550;52.596;13.320;2023-02-15T13:56:19;12.10;99.50
16867;DHT22;8550;52.596;13.320;2023-02-15T14:01:31;11.90;99.90
16867;DHT22;8550;52.596;13.320;2023-02-15T14:06:49;11.70;99.90
16867;DHT22;8550;52.596;13.320;2023-02-15T14:11:57;11.40;99.90
16867;DHT22;8550;52.596;13.320;2023-02-15T14:17:13;11.80;99.90
16867;DHT22;8550;52.596;13.320;2023-02-15T14:22:25;12.70;99.50
16867;DHT22;8550;52.596;13.320;2023-02-15T14:27:41;13.00;98.40
16867;DHT22;8550;52.596;13.320;2023-02-15T14:32:47;13.80;96.80
16867;DHT22;8550;52.596;13.320;2023-02-15T14:37:57;14.40;95.00
16867;DHT22;8550;52.596;13.320;2023-02-15T14:43:07;14.70;94.50
16867;DHT22;8550;52.596;13.320;2023-02-15T14:48:14;14.60;94.20
16867;DHT22;8550;52.596;13.320;2023-02-15T14:53:34;14.60;94.40
16867;DHT22;8550;52.596;13.320;2023-02-15T14:58:55;14.10;95.10
16867;DHT22;8550;52.596;13.320;2023-02-15T15:04:00;13.70;96.10
16867;DHT22;8550;52.596;13.320;2023-02-15T15:09:12;13.60;96.40
16867;DHT22;8550;52.596;13.320;2023-02-15T15:14:42;14.50;95.40
16867;DHT22;8550;52.596;13.320;2023-02-15T15:20:09;14.80;94.90
16867;DHT22;8550;52.596;13.320;2023-02-15T15:25:42;15.70;93.10
16867;DHT22;8550;52.596;13.320;2023-02-15T15:30:54;16.30;90.40
16867;DHT22;8550;52.596;13.320;2023-02-15T15:36:14;17.00;89.30
16867;DHT22;8550;52.596;13.320;2023-02-15T15:41:39;15.60;91.70
16867;DHT22;8550;52.596;13.320;2023-02-15T15:46:53;15.60;91.70
16867;DHT22;8550;52.596;13.320;2023-02-15T15:52:00;14.60;93.50
16867;DHT22;8550;52.596;13.320;2023-02-15T15:57:05;13.30;96.10
16867;DHT22;8550;52.596;13.320;2023-02-15T16:02:11;12.00;99.60
16867;DHT22;8550;52.596;13.320;2023-02-15T16:07:24;11.10;99.90
16867;DHT22;8550;52.596;13.320;2023-02-15T16:12:30;10.60;99.90
16867;DHT22;8550;52.596;13.320;2023-02-15T16:17:33;10.10;99.90
16867;DHT22;8550;52.596;13.320;2023-02-15T16:22:36;9.50;99.90
16867;DHT22;8550;52.596;13.320;2023-02-15T16:27:41;8.80;99.90
16867;DHT22;8550;52.596;13.320;2023-02-15T16:32:44;8.50;99.90
16867;DHT22;8550;52.596;13.320;2023-02-15T16:37:46;8.10;99.90
16867;DHT22;8550;52.596;13.320;2023-02-15T16:42:49;7.70;99.90
16867;DHT22;8550;52.596;13.320;2023-02-15T16:47:54;7.30;99.90
16867;DHT22;8550;52.596;13.320;2023-02-15T16:52:57;7.00;99.90
16867;DHT22;8550;52.596;13.320;2023-02-15T16:58:04;6.90;99.90
16867;DHT22;8550;52.596;13.320;2023-02-15T17:03:21;6.50;99.90
16867;DHT22;8550;52.596;13.320;2023-02-15T17:08:26;6.20;99.90
16867;DHT22;8550;52.596;13.320;2023-02-15T17:13:30;6.00;99.90
16867;DHT22;8550;52.596;13.320;2023-02-15T17:18:34;5.80;99.90
16867;DHT22;8550;52.596;13.320;2023-02-15T17:23:42;5.70;99.90
16867;DHT22;8550;52.596;13.320;2023-02-15T17:28:49;5.50;99.90
16867;DHT22;8550;52.596;13.320;2023-02-15T17:33:51;5.30;99.90
16867;DHT22;8550;52.596;13.320;2023-02-15T17:39:05;5.20;99.90
16867;DHT22;8550;52.596;13.320;2023-02-15T17:44:09;5.00;99.90
16867;DHT22;8550;52.596;13.320;2023-02-15T17:49:21;4.90;99.90
16867;DHT22;8550;52.596;13.320;2023-02-15T17:54:24;4.90;99.90
16867;DHT22;8550;52.596;13.320;2023-02-15T17:59:44;4.80;99.90
16867;DHT22;8550;52.596;13.320;2023-02-15T18:05:07;4.60;99.90
16867;DHT22;8550;52.596;13.320;2023-02-15T18:10:30;4.50;99.90
16867;DHT22;8550;52.596;13.320;2023-02-15T18:15:50;4.40;99.90
16867;DHT22;8550;52.596;13.320;2023-02-15T18:20:52;4.30;99.90
16867;DHT22;8550;52.596;13.320;2023-02-15T18:25:54;4.50;99.90
16867;DHT22;8550;52.596;13.320;2023-02-15T18:30:58;4.20;99.90
16867;DHT22;8550;52.596;13.320;2023-02-15T18:36:00;4.30;99.90
16867;DHT22;8550;52.596;13.320;2023-02-15T18:41:04;4.10;99.90
16867;DHT22;8550;52.596;13.320;2023-02-15T18:46:08;3.90;99.90
16867;DHT22;8550;52.596;13.320;2023-02-15T18:51:16;3.80;99.90
16867;DHT22;8550;52.596;13.320;2023-02-15T18:56:20;3.70;99.90
16867;DHT22;8550;52.596;13.320;2023-02-15T19:01:23;3.60;99.90
16867;DHT22;8550;52.596;13.320;2023-02-15T19:06:27;3.60;99.90
16867;DHT22;8550;52.596;13.320;2023-02-15T19:11:29;3.60;99.90
16867;DHT22;8550;52.596;13.320;2023-02-15T19:16:34;3.40;99.90
16867;DHT22;8550;52.596;13.320;2023-02-15T19:21:37;3.40;99.90
16867;DHT22;8550;52.596;13.320;2023-02-15T19:26:40;3.30;99.90
16867;DHT22;8550;52.596;13.320;2023-02-15T19:31:44;3.20;99.90
16867;DHT22;8550;52.596;13.320;2023-02-15T19:36:49;3.20;99.90
16867;DHT22;8550;52.596;13.320;2023-02-15T19:41:52;3.10;99.90
16867;DHT22;8550;52.596;13.320;2023-02-15T19:46:56;3.00;99.90
16867;DHT22;8550;52.596;13.320;2023-02-15T19:51:58;2.80;99.90
16867;DHT22;8550;52.596;13.320;2023-02-15T19:57:00;2.90;99.90
16867;DHT22;8550;52.596;13.320;2023-02-15T20:02:04;2.90;99.90
16867;DHT22;8550;52.596;13.320;2023-02-15T20:07:13;2.70;99.90
16867;DHT22;8550;52.596;13.320;2023-02-15T20:12:20;2.60;99.90
16867;DHT22;8550;52.596;13.320;2023-02-15T20:17:24;2.70;99.90
16867;DHT22;8550;52.596;13.320;2023-02-15T20:22:26;2.70;99.90
16867;DHT22;8550;52.596;13.320;2023-02-15T20:27:28;2.50;99.90
16867;DHT22;8550;52.596;13.320;2023-02-15T20:32:32;2.60;99.90
16867;DHT22;8550;52.596;13.320;2023-02-15T20:37:33;2.50;99.90
16867;DHT22;8550;52.596;13.320;2023-02-15T20:42:35;2.50;99.90
16867;DHT22;8550;52.596;13.320;2023-02-15T20:47:39;2.50;99.90
16867;DHT22;8550;52.596;13.320;2023-02-15T20:52:43;2.50;99.90
16867;DHT22;8550;52.596;13.320;2023-02-15T20:57:46;2.40;99.90
16867;DHT22;8550;52.596;13.320;2023-02-15T21:02:51;2.30;99.90
16867;DHT22;8550;52.596;13.320;2023-02-15T21:07:55;2.10;99.90
16867;DHT22;8550;52.596;13.320;2023-02-15T21:12:58;2.10;99.90
16867;DHT22;8550;52.596;13.320;2023-02-15T21:18:05;2.00;99.90
16867;DHT22;8550;52.596;13.320;2023-02-15T21:23:10;1.90;99.90
16867;DHT22;8550;52.596;13.320;2023-02-15T21:28:17;1.90;99.90
16867;DHT22;8550;52.596;13.320;2023-02-15T21:33:21;1.90;99.90
16867;DHT22;8550;52.596;13.320;2023-02-15T21:38:24;2.00;99.90
16867;DHT22;8550;52.596;13.320;2023-02-15T21:43:28;2.00;99.90
16867;DHT22;8550;52.596;13.320;2023-02-15T21:48:55;1.90;99.90
16867;DHT22;8550;52.596;13.320;2023-02-15T21:53:57;1.80;99.90
16867;DHT22;8550;52.596;13.320;2023-02-15T21:58:59;1.80;99.90
16867;DHT22;8550;52.596;13.320;2023-02-15T22:04:02;1.60;99.90
16867;DHT22;8550;52.596;13.320;2023-02-15T22:09:12;1.50;99.90
16867;DHT22;8550;52.596;13.320;2023-02-15T22:14:33;1.40;99.90
16867;DHT22;8550;52.596;13.320;2023-02-15T22:19:38;1.30;99.90
16867;DHT22;8550;52.596;13.320;2023-02-15T22:24:40;1.10;99.90
16867;DHT22;8550;52.596;13.320;2023-02-15T22:29:44;1.10;99.90
16867;DHT22;8550;52.596;13.320;2023-02-15T22:34:50;1.00;99.90
16867;DHT22;8550;52.596;13.320;2023-02-15T22:39:52;1.00;99.90
16867;DHT22;8550;52.596;13.320;2023-02-15T22:44:56;1.20;99.90
16867;DHT22;8550;52.596;13.320;2023-02-15T22:49:59;1.10;99.90
16867;DHT22;8550;52.596;13.320;2023-02-15T22:55:03;1.10;99.90
16867;DHT22;8550;52.596;13.320;2023-02-15T23:00:08;1.10;99.90
16867;DHT22;8550;52.596;13.320;2023-02-15T23:05:17;1.10;99.90
16867;DHT22;8550;52.596;13.320;2023-02-15T23:10:21;1.10;99.90
16867;DHT22;8550;52.596;13.320;2023-02-15T23:15:23;0.90;99.90
16867;DHT22;8550;52.596;13.320;2023-02-15T23:20:27;0.80;99.90
16867;DHT22;8550;52.596;13.320;2023-02-15T23:25:28;0.90;99.90
16867;DHT22;8550;52.596;13.320;2023-02-15T23:30:30;1.00;99.90
16867;DHT22;8550;52.596;13.320;2023-02-15T23:35:34;0.70;99.90
16867;DHT22;8550;52.596;13.320;2023-02-15T23:40:36;0.90;99.90
16867;DHT22;8550;52.596;13.320;2023-02-15T23:45:55;0.90;99.90
16867;DHT22;8550;52.596;13.320;2023-02-15T23:50:59;0.80;99.90
16867;DHT22;8550;52.596;13.320;2023-02-15T23:56:01;0.90;99.90
